sensor_id;sensor_type;location;lat;lon;timestamp;P1;durP1;ratioP1;P2;durP2;ratioP2
64619;SDS011;51029;51.058;13.826;2023-08-07T00:00:12;4.53;;;4.10;;
64619;SDS011;51029;51.058;13.826;2023-08-07T00:02:38;4.53;;;4.23;;
64619;SDS011;51029;51.058;13.826;2023-08-07T00:05:04;6.00;;;4.57;;
64619;SDS011;51029;51.058;13.826;2023-08-07T00:07:31;7.40;;;4.70;;
64619;SDS011;51029;51.058;13.826;2023-08-07T00:09:56;5.03;;;4.50;;
64619;SDS011;51029;51.058;13.826;2023-08-07T00:12:22;4.77;;;4.30;;
64619;SDS011;51029;51.058;13.826;2023-08-07T00:14:49;4.40;;;4.00;;
64619;SDS011;51029;51.058;13.826;2023-08-07T00:17:15;6.17;;;4.77;;
64619;SDS011;51029;51.058;13.826;2023-08-07T00:19:41;5.23;;;4.70;;
64619;SDS011;51029;51.058;13.826;2023-08-07T00:22:07;4.73;;;4.30;;
64619;SDS011;51029;51.058;13.826;2023-08-07T00:24:32;4.13;;;3.80;;
64619;SDS011;51029;51.058;13.826;2023-08-07T00:26:58;4.73;;;4.10;;
64619;SDS011;51029;51.058;13.826;2023-08-07T00:29:23;4.83;;;4.43;;
64619;SDS011;51029;51.058;13.826;2023-08-07T00:31:49;4.50;;;4.10;;
64619;SDS011;51029;51.058;13.826;2023-08-07T00:34:15;4.30;;;3.90;;
64619;SDS011;51029;51.058;13.826;2023-08-07T00:36:40;5.50;;;3.47;;
64619;SDS011;51029;51.058;13.826;2023-08-07T00:39:06;4.03;;;3.43;;
64619;SDS011;51029;51.058;13.826;2023-08-07T00:41:32;4.47;;;4.07;;
64619;SDS011;51029;51.058;13.826;2023-08-07T00:43:58;4.60;;;3.40;;
64619;SDS011;51029;51.058;13.826;2023-08-07T00:46:24;4.23;;;3.10;;
64619;SDS011;51029;51.058;13.826;2023-08-07T00:48:49;3.90;;;3.27;;
64619;SDS011;51029;51.058;13.826;2023-08-07T00:51:17;7.53;;;3.50;;
64619;SDS011;51029;51.058;13.826;2023-08-07T00:53:42;4.60;;;2.90;;
64619;SDS011;51029;51.058;13.826;2023-08-07T00:56:08;3.50;;;3.20;;
64619;SDS011;51029;51.058;13.826;2023-08-07T00:58:34;3.70;;;3.37;;
64619;SDS011;51029;51.058;13.826;2023-08-07T01:01:01;3.73;;;3.23;;
64619;SDS011;51029;51.058;13.826;2023-08-07T01:03:26;5.23;;;3.60;;
64619;SDS011;51029;51.058;13.826;2023-08-07T01:05:52;6.43;;;3.70;;
64619;SDS011;51029;51.058;13.826;2023-08-07T01:08:17;3.87;;;3.57;;
64619;SDS011;51029;51.058;13.826;2023-08-07T01:13:30;4.07;;;3.70;;
64619;SDS011;51029;51.058;13.826;2023-08-07T01:16:10;6.03;;;5.37;;
64619;SDS011;51029;51.058;13.826;2023-08-07T01:18:43;5.37;;;4.90;;
64619;SDS011;51029;51.058;13.826;2023-08-07T01:21:20;5.87;;;5.40;;
64619;SDS011;51029;51.058;13.826;2023-08-07T01:23:46;5.93;;;5.43;;
64619;SDS011;51029;51.058;13.826;2023-08-07T01:26:12;7.00;;;6.40;;
64619;SDS011;51029;51.058;13.826;2023-08-07T01:28:42;7.13;;;6.53;;
64619;SDS011;51029;51.058;13.826;2023-08-07T01:31:15;6.83;;;6.20;;
64619;SDS011;51029;51.058;13.826;2023-08-07T01:33:56;6.80;;;6.20;;
64619;SDS011;51029;51.058;13.826;2023-08-07T01:36:24;7.20;;;6.50;;
64619;SDS011;51029;51.058;13.826;2023-08-07T01:38:53;7.27;;;6.57;;
64619;SDS011;51029;51.058;13.826;2023-08-07T01:41:21;7.13;;;6.30;;
64619;SDS011;51029;51.058;13.826;2023-08-07T01:43:47;7.20;;;6.60;;
64619;SDS011;51029;51.058;13.826;2023-08-07T01:46:13;6.63;;;6.03;;
64619;SDS011;51029;51.058;13.826;2023-08-07T01:48:38;7.10;;;6.50;;
64619;SDS011;51029;51.058;13.826;2023-08-07T01:51:04;8.27;;;6.67;;
64619;SDS011;51029;51.058;13.826;2023-08-07T01:53:29;8.33;;;7.50;;
64619;SDS011;51029;51.058;13.826;2023-08-07T01:55:55;7.47;;;6.87;;
64619;SDS011;51029;51.058;13.826;2023-08-07T01:58:20;7.20;;;6.57;;
64619;SDS011;51029;51.058;13.826;2023-08-07T02:00:46;7.60;;;6.80;;
64619;SDS011;51029;51.058;13.826;2023-08-07T02:03:11;7.57;;;6.83;;
64619;SDS011;51029;51.058;13.826;2023-08-07T02:05:37;7.97;;;7.37;;
64619;SDS011;51029;51.058;13.826;2023-08-07T02:08:03;7.63;;;7.03;;
64619;SDS011;51029;51.058;13.826;2023-08-07T02:10:28;7.23;;;6.57;;
64619;SDS011;51029;51.058;13.826;2023-08-07T02:12:54;7.53;;;6.80;;
64619;SDS011;51029;51.058;13.826;2023-08-07T02:15:22;6.63;;;6.10;;
64619;SDS011;51029;51.058;13.826;2023-08-07T02:17:47;6.40;;;5.90;;
64619;SDS011;51029;51.058;13.826;2023-08-07T02:20:13;7.37;;;6.73;;
64619;SDS011;51029;51.058;13.826;2023-08-07T02:22:38;7.33;;;6.70;;
64619;SDS011;51029;51.058;13.826;2023-08-07T02:25:04;8.93;;;7.27;;
64619;SDS011;51029;51.058;13.826;2023-08-07T02:27:30;7.50;;;6.80;;
64619;SDS011;51029;51.058;13.826;2023-08-07T02:29:55;7.93;;;7.23;;
64619;SDS011;51029;51.058;13.826;2023-08-07T02:32:21;8.43;;;7.73;;
64619;SDS011;51029;51.058;13.826;2023-08-07T02:34:46;10.23;;;9.43;;
64619;SDS011;51029;51.058;13.826;2023-08-07T02:37:12;8.93;;;8.23;;
64619;SDS011;51029;51.058;13.826;2023-08-07T02:39:38;9.27;;;8.27;;
64619;SDS011;51029;51.058;13.826;2023-08-07T02:42:03;9.17;;;8.33;;
64619;SDS011;51029;51.058;13.826;2023-08-07T02:44:29;9.03;;;8.13;;
64619;SDS011;51029;51.058;13.826;2023-08-07T02:46:54;9.50;;;8.70;;
64619;SDS011;51029;51.058;13.826;2023-08-07T02:49:20;8.63;;;7.60;;
64619;SDS011;51029;51.058;13.826;2023-08-07T02:51:45;8.20;;;7.50;;
64619;SDS011;51029;51.058;13.826;2023-08-07T02:54:11;8.43;;;7.63;;
64619;SDS011;51029;51.058;13.826;2023-08-07T02:56:36;9.40;;;8.50;;
64619;SDS011;51029;51.058;13.826;2023-08-07T02:59:02;9.40;;;8.50;;
64619;SDS011;51029;51.058;13.826;2023-08-07T03:01:28;8.17;;;7.47;;
64619;SDS011;51029;51.058;13.826;2023-08-07T03:03:55;8.63;;;7.93;;
64619;SDS011;51029;51.058;13.826;2023-08-07T03:06:21;10.17;;;9.27;;
64619;SDS011;51029;51.058;13.826;2023-08-07T03:08:46;10.53;;;9.50;;
64619;SDS011;51029;51.058;13.826;2023-08-07T03:11:12;10.30;;;9.30;;
64619;SDS011;51029;51.058;13.826;2023-08-07T03:13:37;11.10;;;10.20;;
64619;SDS011;51029;51.058;13.826;2023-08-07T03:16:04;13.63;;;10.77;;
64619;SDS011;51029;51.058;13.826;2023-08-07T03:18:31;10.93;;;9.83;;
64619;SDS011;51029;51.058;13.826;2023-08-07T03:20:57;16.17;;;10.40;;
64619;SDS011;51029;51.058;13.826;2023-08-07T03:23:23;10.17;;;9.03;;
64619;SDS011;51029;51.058;13.826;2023-08-07T03:25:50;5.07;;;4.67;;
64619;SDS011;51029;51.058;13.826;2023-08-07T03:28:16;7.00;;;5.83;;
64619;SDS011;51029;51.058;13.826;2023-08-07T03:30:42;7.83;;;7.03;;
64619;SDS011;51029;51.058;13.826;2023-08-07T03:33:09;7.67;;;6.80;;
64619;SDS011;51029;51.058;13.826;2023-08-07T03:35:35;7.03;;;6.33;;
64619;SDS011;51029;51.058;13.826;2023-08-07T03:38:00;6.00;;;5.17;;
64619;SDS011;51029;51.058;13.826;2023-08-07T03:40:26;8.00;;;4.73;;
64619;SDS011;51029;51.058;13.826;2023-08-07T03:42:51;6.67;;;5.40;;
64619;SDS011;51029;51.058;13.826;2023-08-07T03:45:17;7.97;;;6.37;;
64619;SDS011;51029;51.058;13.826;2023-08-07T03:47:42;7.93;;;6.83;;
64619;SDS011;51029;51.058;13.826;2023-08-07T03:50:08;7.03;;;6.37;;
64619;SDS011;51029;51.058;13.826;2023-08-07T03:52:34;7.70;;;6.10;;
64619;SDS011;51029;51.058;13.826;2023-08-07T03:54:59;10.40;;;6.80;;
64619;SDS011;51029;51.058;13.826;2023-08-07T03:57:25;6.70;;;6.10;;
64619;SDS011;51029;51.058;13.826;2023-08-07T03:59:50;7.17;;;6.33;;
64619;SDS011;51029;51.058;13.826;2023-08-07T04:02:16;7.40;;;5.70;;
64619;SDS011;51029;51.058;13.826;2023-08-07T04:04:41;7.13;;;5.77;;
64619;SDS011;51029;51.058;13.826;2023-08-07T04:07:07;10.47;;;7.13;;
64619;SDS011;51029;51.058;13.826;2023-08-07T04:09:32;6.70;;;6.00;;
64619;SDS011;51029;51.058;13.826;2023-08-07T04:11:58;7.13;;;6.43;;
64619;SDS011;51029;51.058;13.826;2023-08-07T04:14:24;7.07;;;5.77;;
64619;SDS011;51029;51.058;13.826;2023-08-07T04:16:49;5.90;;;5.17;;
64619;SDS011;51029;51.058;13.826;2023-08-07T04:19:15;7.60;;;6.80;;
64619;SDS011;51029;51.058;13.826;2023-08-07T04:21:41;6.77;;;6.17;;
64619;SDS011;51029;51.058;13.826;2023-08-07T04:24:06;9.93;;;7.23;;
64619;SDS011;51029;51.058;13.826;2023-08-07T04:26:36;10.17;;;7.97;;
64619;SDS011;51029;51.058;13.826;2023-08-07T04:29:02;8.87;;;7.97;;
64619;SDS011;51029;51.058;13.826;2023-08-07T04:31:28;8.60;;;7.10;;
64619;SDS011;51029;51.058;13.826;2023-08-07T04:33:56;9.30;;;7.43;;
64619;SDS011;51029;51.058;13.826;2023-08-07T04:36:22;9.70;;;8.27;;
64619;SDS011;51029;51.058;13.826;2023-08-07T04:38:49;11.60;;;9.13;;
64619;SDS011;51029;51.058;13.826;2023-08-07T04:41:15;10.57;;;9.57;;
64619;SDS011;51029;51.058;13.826;2023-08-07T04:43:40;11.20;;;9.40;;
64619;SDS011;51029;51.058;13.826;2023-08-07T04:46:07;13.23;;;10.53;;
64619;SDS011;51029;51.058;13.826;2023-08-07T04:48:34;12.97;;;11.50;;
64619;SDS011;51029;51.058;13.826;2023-08-07T04:51:00;17.60;;;12.83;;
64619;SDS011;51029;51.058;13.826;2023-08-07T04:53:27;14.07;;;12.13;;
64619;SDS011;51029;51.058;13.826;2023-08-07T04:55:52;16.50;;;12.80;;
64619;SDS011;51029;51.058;13.826;2023-08-07T04:58:18;14.77;;;13.13;;
64619;SDS011;51029;51.058;13.826;2023-08-07T05:00:43;16.73;;;14.00;;
64619;SDS011;51029;51.058;13.826;2023-08-07T05:03:09;16.33;;;13.60;;
64619;SDS011;51029;51.058;13.826;2023-08-07T05:05:34;17.40;;;13.33;;
64619;SDS011;51029;51.058;13.826;2023-08-07T05:08:00;15.07;;;12.83;;
64619;SDS011;51029;51.058;13.826;2023-08-07T05:10:26;13.23;;;11.83;;
64619;SDS011;51029;51.058;13.826;2023-08-07T05:12:51;12.97;;;11.60;;
64619;SDS011;51029;51.058;13.826;2023-08-07T05:15:20;14.33;;;12.83;;
64619;SDS011;51029;51.058;13.826;2023-08-07T05:17:50;13.87;;;12.47;;
64619;SDS011;51029;51.058;13.826;2023-08-07T05:20:16;16.17;;;13.83;;
64619;SDS011;51029;51.058;13.826;2023-08-07T05:22:42;14.03;;;12.67;;
64619;SDS011;51029;51.058;13.826;2023-08-07T05:25:08;14.97;;;13.40;;
64619;SDS011;51029;51.058;13.826;2023-08-07T05:27:34;15.10;;;13.50;;
64619;SDS011;51029;51.058;13.826;2023-08-07T05:30:00;15.87;;;14.27;;
64619;SDS011;51029;51.058;13.826;2023-08-07T05:32:25;14.77;;;13.23;;
64619;SDS011;51029;51.058;13.826;2023-08-07T05:34:51;16.20;;;14.03;;
64619;SDS011;51029;51.058;13.826;2023-08-07T05:37:17;13.97;;;12.53;;
64619;SDS011;51029;51.058;13.826;2023-08-07T05:39:42;16.80;;;13.43;;
64619;SDS011;51029;51.058;13.826;2023-08-07T05:42:08;15.40;;;12.77;;
64619;SDS011;51029;51.058;13.826;2023-08-07T05:44:35;15.30;;;12.93;;
64619;SDS011;51029;51.058;13.826;2023-08-07T05:47:00;15.73;;;14.13;;
64619;SDS011;51029;51.058;13.826;2023-08-07T05:49:26;14.50;;;13.00;;
64619;SDS011;51029;51.058;13.826;2023-08-07T05:51:51;11.37;;;10.17;;
64619;SDS011;51029;51.058;13.826;2023-08-07T05:54:17;13.07;;;11.77;;
64619;SDS011;51029;51.058;13.826;2023-08-07T05:56:43;10.87;;;9.87;;
64619;SDS011;51029;51.058;13.826;2023-08-07T05:59:08;10.47;;;9.33;;
64619;SDS011;51029;51.058;13.826;2023-08-07T06:01:34;11.23;;;10.03;;
64619;SDS011;51029;51.058;13.826;2023-08-07T06:04:01;9.30;;;8.40;;
64619;SDS011;51029;51.058;13.826;2023-08-07T06:06:27;11.83;;;9.63;;
64619;SDS011;51029;51.058;13.826;2023-08-07T06:08:53;10.80;;;9.80;;
64619;SDS011;51029;51.058;13.826;2023-08-07T06:11:19;11.30;;;10.30;;
64619;SDS011;51029;51.058;13.826;2023-08-07T06:13:45;10.00;;;8.47;;
64619;SDS011;51029;51.058;13.826;2023-08-07T06:16:10;9.80;;;8.90;;
64619;SDS011;51029;51.058;13.826;2023-08-07T06:18:36;7.97;;;7.27;;
64619;SDS011;51029;51.058;13.826;2023-08-07T06:21:02;9.50;;;8.57;;
64619;SDS011;51029;51.058;13.826;2023-08-07T06:23:29;8.30;;;7.50;;
64619;SDS011;51029;51.058;13.826;2023-08-07T06:25:55;8.20;;;7.40;;
64619;SDS011;51029;51.058;13.826;2023-08-07T06:28:22;8.50;;;7.73;;
64619;SDS011;51029;51.058;13.826;2023-08-07T06:30:47;8.27;;;7.47;;
64619;SDS011;51029;51.058;13.826;2023-08-07T06:33:13;8.07;;;7.30;;
64619;SDS011;51029;51.058;13.826;2023-08-07T06:35:38;7.37;;;6.63;;
64619;SDS011;51029;51.058;13.826;2023-08-07T06:38:04;6.93;;;6.23;;
64619;SDS011;51029;51.058;13.826;2023-08-07T06:40:30;8.23;;;6.00;;
64619;SDS011;51029;51.058;13.826;2023-08-07T06:42:56;6.40;;;5.80;;
64619;SDS011;51029;51.058;13.826;2023-08-07T06:45:21;6.20;;;5.10;;
64619;SDS011;51029;51.058;13.826;2023-08-07T06:47:47;5.63;;;5.13;;
64619;SDS011;51029;51.058;13.826;2023-08-07T06:50:13;7.40;;;4.87;;
64619;SDS011;51029;51.058;13.826;2023-08-07T06:52:39;5.17;;;4.50;;
64619;SDS011;51029;51.058;13.826;2023-08-07T06:55:04;4.77;;;4.37;;
64619;SDS011;51029;51.058;13.826;2023-08-07T06:57:30;4.47;;;4.07;;
64619;SDS011;51029;51.058;13.826;2023-08-07T06:59:56;5.63;;;3.80;;
64619;SDS011;51029;51.058;13.826;2023-08-07T07:02:21;5.20;;;4.40;;
64619;SDS011;51029;51.058;13.826;2023-08-07T07:04:47;5.93;;;4.30;;
64619;SDS011;51029;51.058;13.826;2023-08-07T07:07:12;5.93;;;3.90;;
64619;SDS011;51029;51.058;13.826;2023-08-07T07:09:39;5.10;;;4.60;;
64619;SDS011;51029;51.058;13.826;2023-08-07T07:12:05;4.30;;;3.73;;
64619;SDS011;51029;51.058;13.826;2023-08-07T07:14:32;4.90;;;4.40;;
64619;SDS011;51029;51.058;13.826;2023-08-07T07:16:58;4.40;;;3.47;;
64619;SDS011;51029;51.058;13.826;2023-08-07T07:19:24;4.27;;;3.20;;
64619;SDS011;51029;51.058;13.826;2023-08-07T07:21:49;3.40;;;3.10;;
64619;SDS011;51029;51.058;13.826;2023-08-07T07:24:15;5.53;;;3.27;;
64619;SDS011;51029;51.058;13.826;2023-08-07T07:26:41;4.67;;;3.10;;
64619;SDS011;51029;51.058;13.826;2023-08-07T07:29:06;4.13;;;2.87;;
64619;SDS011;51029;51.058;13.826;2023-08-07T07:31:32;4.80;;;3.10;;
64619;SDS011;51029;51.058;13.826;2023-08-07T07:33:57;3.43;;;3.13;;
64619;SDS011;51029;51.058;13.826;2023-08-07T07:36:23;3.10;;;2.90;;
64619;SDS011;51029;51.058;13.826;2023-08-07T07:38:49;4.10;;;3.10;;
64619;SDS011;51029;51.058;13.826;2023-08-07T07:41:14;3.57;;;2.63;;
64619;SDS011;51029;51.058;13.826;2023-08-07T07:43:40;3.17;;;2.70;;
64619;SDS011;51029;51.058;13.826;2023-08-07T07:46:06;6.67;;;2.97;;
64619;SDS011;51029;51.058;13.826;2023-08-07T07:48:32;3.23;;;2.90;;
64619;SDS011;51029;51.058;13.826;2023-08-07T07:50:58;3.17;;;2.70;;
64619;SDS011;51029;51.058;13.826;2023-08-07T07:53:24;4.13;;;3.03;;
64619;SDS011;51029;51.058;13.826;2023-08-07T07:55:50;4.83;;;3.00;;
64619;SDS011;51029;51.058;13.826;2023-08-07T07:58:15;3.47;;;2.70;;
64619;SDS011;51029;51.058;13.826;2023-08-07T08:00:41;3.27;;;2.50;;
64619;SDS011;51029;51.058;13.826;2023-08-07T08:03:07;2.77;;;2.47;;
64619;SDS011;51029;51.058;13.826;2023-08-07T08:05:33;5.07;;;1.90;;
64619;SDS011;51029;51.058;13.826;2023-08-07T08:07:59;20.97;;;19.57;;
64619;SDS011;51029;51.058;13.826;2023-08-07T08:10:26;4.17;;;2.40;;
64619;SDS011;51029;51.058;13.826;2023-08-07T08:12:52;3.77;;;2.03;;
64619;SDS011;51029;51.058;13.826;2023-08-07T08:15:19;2.77;;;2.00;;
64619;SDS011;51029;51.058;13.826;2023-08-07T08:17:46;2.60;;;1.80;;
64619;SDS011;51029;51.058;13.826;2023-08-07T08:20:11;2.60;;;2.20;;
64619;SDS011;51029;51.058;13.826;2023-08-07T08:22:40;3.60;;;2.00;;
64619;SDS011;51029;51.058;13.826;2023-08-07T08:25:06;2.83;;;1.80;;
64619;SDS011;51029;51.058;13.826;2023-08-07T08:27:32;2.33;;;1.80;;
64619;SDS011;51029;51.058;13.826;2023-08-07T08:29:57;1.77;;;1.60;;
64619;SDS011;51029;51.058;13.826;2023-08-07T08:32:23;3.10;;;1.70;;
64619;SDS011;51029;51.058;13.826;2023-08-07T08:34:48;3.07;;;1.77;;
64619;SDS011;51029;51.058;13.826;2023-08-07T08:37:17;2.13;;;1.93;;
64619;SDS011;51029;51.058;13.826;2023-08-07T08:39:42;2.73;;;1.90;;
64619;SDS011;51029;51.058;13.826;2023-08-07T08:42:08;2.97;;;2.00;;
64619;SDS011;51029;51.058;13.826;2023-08-07T08:44:38;3.37;;;1.90;;
64619;SDS011;51029;51.058;13.826;2023-08-07T08:47:05;3.27;;;2.00;;
64619;SDS011;51029;51.058;13.826;2023-08-07T08:49:35;3.63;;;2.10;;
64619;SDS011;51029;51.058;13.826;2023-08-07T08:52:06;3.13;;;1.77;;
64619;SDS011;51029;51.058;13.826;2023-08-07T08:54:32;2.80;;;2.03;;
64619;SDS011;51029;51.058;13.826;2023-08-07T08:56:58;3.37;;;1.90;;
64619;SDS011;51029;51.058;13.826;2023-08-07T08:59:24;2.50;;;1.70;;
64619;SDS011;51029;51.058;13.826;2023-08-07T09:01:51;4.60;;;2.00;;
64619;SDS011;51029;51.058;13.826;2023-08-07T09:04:18;1.70;;;1.60;;
64619;SDS011;51029;51.058;13.826;2023-08-07T09:06:43;2.83;;;1.80;;
64619;SDS011;51029;51.058;13.826;2023-08-07T09:09:11;2.80;;;1.83;;
64619;SDS011;51029;51.058;13.826;2023-08-07T09:11:38;2.90;;;1.50;;
64619;SDS011;51029;51.058;13.826;2023-08-07T09:14:06;2.33;;;1.47;;
64619;SDS011;51029;51.058;13.826;2023-08-07T09:16:34;2.83;;;1.50;;
64619;SDS011;51029;51.058;13.826;2023-08-07T09:19:01;2.10;;;1.50;;
64619;SDS011;51029;51.058;13.826;2023-08-07T09:21:26;1.90;;;1.53;;
64619;SDS011;51029;51.058;13.826;2023-08-07T09:23:53;1.80;;;1.37;;
64619;SDS011;51029;51.058;13.826;2023-08-07T09:26:22;4.93;;;3.60;;
64619;SDS011;51029;51.058;13.826;2023-08-07T09:28:51;2.40;;;1.17;;
64619;SDS011;51029;51.058;13.826;2023-08-07T09:31:18;2.60;;;1.30;;
64619;SDS011;51029;51.058;13.826;2023-08-07T09:33:46;2.33;;;1.30;;
64619;SDS011;51029;51.058;13.826;2023-08-07T09:36:13;2.80;;;1.20;;
64619;SDS011;51029;51.058;13.826;2023-08-07T09:38:39;2.80;;;1.20;;
64619;SDS011;51029;51.058;13.826;2023-08-07T09:41:04;2.10;;;1.37;;
64619;SDS011;51029;51.058;13.826;2023-08-07T09:43:33;2.50;;;1.20;;
64619;SDS011;51029;51.058;13.826;2023-08-07T09:46:04;2.77;;;1.20;;
64619;SDS011;51029;51.058;13.826;2023-08-07T09:48:30;4.30;;;1.40;;
64619;SDS011;51029;51.058;13.826;2023-08-07T09:51:01;3.77;;;1.27;;
64619;SDS011;51029;51.058;13.826;2023-08-07T09:53:29;3.63;;;1.37;;
64619;SDS011;51029;51.058;13.826;2023-08-07T09:55:55;1.40;;;1.30;;
64619;SDS011;51029;51.058;13.826;2023-08-07T09:58:22;1.57;;;1.40;;
64619;SDS011;51029;51.058;13.826;2023-08-07T10:00:48;1.63;;;1.07;;
64619;SDS011;51029;51.058;13.826;2023-08-07T10:03:14;2.07;;;1.33;;
64619;SDS011;51029;51.058;13.826;2023-08-07T10:05:42;2.37;;;1.20;;
64619;SDS011;51029;51.058;13.826;2023-08-07T10:08:08;2.00;;;1.40;;
64619;SDS011;51029;51.058;13.826;2023-08-07T10:10:38;1.87;;;1.37;;
64619;SDS011;51029;51.058;13.826;2023-08-07T10:13:04;2.63;;;1.20;;
64619;SDS011;51029;51.058;13.826;2023-08-07T10:15:33;2.97;;;1.30;;
64619;SDS011;51029;51.058;13.826;2023-08-07T10:18:02;1.40;;;1.13;;
64619;SDS011;51029;51.058;13.826;2023-08-07T10:20:28;2.97;;;1.30;;
64619;SDS011;51029;51.058;13.826;2023-08-07T10:23:00;2.13;;;1.00;;
64619;SDS011;51029;51.058;13.826;2023-08-07T10:25:31;3.10;;;1.30;;
64619;SDS011;51029;51.058;13.826;2023-08-07T10:27:57;2.40;;;1.20;;
64619;SDS011;51029;51.058;13.826;2023-08-07T10:30:25;4.87;;;1.20;;
64619;SDS011;51029;51.058;13.826;2023-08-07T10:32:52;3.83;;;1.10;;
64619;SDS011;51029;51.058;13.826;2023-08-07T10:37:51;1.40;;;1.10;;
64619;SDS011;51029;51.058;13.826;2023-08-07T10:40:18;1.30;;;1.20;;
64619;SDS011;51029;51.058;13.826;2023-08-07T10:42:55;2.00;;;1.27;;
64619;SDS011;51029;51.058;13.826;2023-08-07T10:45:25;2.77;;;1.37;;
64619;SDS011;51029;51.058;13.826;2023-08-07T10:48:02;1.83;;;1.30;;
64619;SDS011;51029;51.058;13.826;2023-08-07T10:55:59;4.10;;;1.10;;
64619;SDS011;51029;51.058;13.826;2023-08-07T10:58:35;1.27;;;0.90;;
64619;SDS011;51029;51.058;13.826;2023-08-07T11:04:14;3.27;;;1.40;;
64619;SDS011;51029;51.058;13.826;2023-08-07T11:06:40;1.67;;;1.40;;
64619;SDS011;51029;51.058;13.826;2023-08-07T11:09:07;2.00;;;1.37;;
64619;SDS011;51029;51.058;13.826;2023-08-07T11:11:41;2.53;;;1.50;;
64619;SDS011;51029;51.058;13.826;2023-08-07T11:14:08;1.93;;;1.20;;
64619;SDS011;51029;51.058;13.826;2023-08-07T11:16:35;2.60;;;1.27;;
64619;SDS011;51029;51.058;13.826;2023-08-07T11:19:01;4.57;;;1.20;;
64619;SDS011;51029;51.058;13.826;2023-08-07T11:21:27;2.30;;;1.10;;
64619;SDS011;51029;51.058;13.826;2023-08-07T11:23:53;1.10;;;1.00;;
64619;SDS011;51029;51.058;13.826;2023-08-07T11:26:19;2.03;;;1.10;;
64619;SDS011;51029;51.058;13.826;2023-08-07T11:28:49;2.47;;;1.10;;
64619;SDS011;51029;51.058;13.826;2023-08-07T11:31:15;1.73;;;1.10;;
64619;SDS011;51029;51.058;13.826;2023-08-07T11:33:42;2.03;;;1.30;;
64619;SDS011;51029;51.058;13.826;2023-08-07T11:36:11;1.20;;;1.10;;
64619;SDS011;51029;51.058;13.826;2023-08-07T11:38:39;1.63;;;1.40;;
64619;SDS011;51029;51.058;13.826;2023-08-07T11:41:10;1.40;;;1.07;;
64619;SDS011;51029;51.058;13.826;2023-08-07T11:43:37;1.83;;;0.97;;
64619;SDS011;51029;51.058;13.826;2023-08-07T11:46:04;2.37;;;1.50;;
64619;SDS011;51029;51.058;13.826;2023-08-07T11:48:31;1.67;;;1.50;;
64619;SDS011;51029;51.058;13.826;2023-08-07T11:50:59;3.00;;;1.70;;
64619;SDS011;51029;51.058;13.826;2023-08-07T11:53:25;3.13;;;1.60;;
64619;SDS011;51029;51.058;13.826;2023-08-07T11:55:53;4.17;;;1.90;;
64619;SDS011;51029;51.058;13.826;2023-08-07T11:58:23;3.40;;;2.30;;
64619;SDS011;51029;51.058;13.826;2023-08-07T12:00:50;3.03;;;1.57;;
64619;SDS011;51029;51.058;13.826;2023-08-07T12:05:59;2.73;;;1.57;;
64619;SDS011;51029;51.058;13.826;2023-08-07T12:08:47;3.07;;;1.77;;
64619;SDS011;51029;51.058;13.826;2023-08-07T12:11:15;18.80;;;14.57;;
64619;SDS011;51029;51.058;13.826;2023-08-07T12:13:41;5.03;;;2.30;;
64619;SDS011;51029;51.058;13.826;2023-08-07T12:16:08;2.50;;;2.07;;
64619;SDS011;51029;51.058;13.826;2023-08-07T12:18:34;4.17;;;2.60;;
64619;SDS011;51029;51.058;13.826;2023-08-07T12:21:03;1.67;;;1.53;;
64619;SDS011;51029;51.058;13.826;2023-08-07T12:23:32;2.77;;;1.10;;
64619;SDS011;51029;51.058;13.826;2023-08-07T12:25:58;1.80;;;1.27;;
64619;SDS011;51029;51.058;13.826;2023-08-07T12:28:24;1.23;;;1.10;;
64619;SDS011;51029;51.058;13.826;2023-08-07T12:30:50;1.53;;;1.10;;
64619;SDS011;51029;51.058;13.826;2023-08-07T12:33:16;1.40;;;1.10;;
64619;SDS011;51029;51.058;13.826;2023-08-07T12:35:43;2.80;;;1.00;;
64619;SDS011;51029;51.058;13.826;2023-08-07T12:38:09;1.50;;;1.03;;
64619;SDS011;51029;51.058;13.826;2023-08-07T12:40:35;1.83;;;1.10;;
64619;SDS011;51029;51.058;13.826;2023-08-07T12:43:01;1.83;;;1.20;;
64619;SDS011;51029;51.058;13.826;2023-08-07T12:45:31;0.90;;;0.90;;
64619;SDS011;51029;51.058;13.826;2023-08-07T12:47:56;0.97;;;0.73;;
64619;SDS011;51029;51.058;13.826;2023-08-07T12:50:22;1.63;;;0.80;;
64619;SDS011;51029;51.058;13.826;2023-08-07T12:52:48;1.67;;;0.90;;
64619;SDS011;51029;51.058;13.826;2023-08-07T12:55:13;2.50;;;1.00;;
64619;SDS011;51029;51.058;13.826;2023-08-07T12:57:42;2.57;;;1.03;;
64619;SDS011;51029;51.058;13.826;2023-08-07T13:00:09;2.43;;;1.00;;
64619;SDS011;51029;51.058;13.826;2023-08-07T13:02:38;3.13;;;0.93;;
64619;SDS011;51029;51.058;13.826;2023-08-07T13:05:05;1.60;;;0.90;;
64619;SDS011;51029;51.058;13.826;2023-08-07T13:07:30;1.33;;;0.90;;
64619;SDS011;51029;51.058;13.826;2023-08-07T13:09:56;0.97;;;0.90;;
64619;SDS011;51029;51.058;13.826;2023-08-07T13:12:22;1.83;;;1.00;;
64619;SDS011;51029;51.058;13.826;2023-08-07T13:14:48;2.83;;;1.10;;
64619;SDS011;51029;51.058;13.826;2023-08-07T13:17:13;1.10;;;0.90;;
64619;SDS011;51029;51.058;13.826;2023-08-07T13:19:39;2.27;;;1.07;;
64619;SDS011;51029;51.058;13.826;2023-08-07T13:22:04;1.67;;;1.10;;
64619;SDS011;51029;51.058;13.826;2023-08-07T13:24:30;2.33;;;0.90;;
64619;SDS011;51029;51.058;13.826;2023-08-07T13:26:55;2.07;;;1.07;;
64619;SDS011;51029;51.058;13.826;2023-08-07T13:29:21;2.17;;;0.97;;
64619;SDS011;51029;51.058;13.826;2023-08-07T13:31:46;1.10;;;0.90;;
64619;SDS011;51029;51.058;13.826;2023-08-07T13:34:13;2.00;;;0.80;;
64619;SDS011;51029;51.058;13.826;2023-08-07T13:36:39;0.93;;;0.70;;
64619;SDS011;51029;51.058;13.826;2023-08-07T13:39:04;1.70;;;0.90;;
64619;SDS011;51029;51.058;13.826;2023-08-07T13:41:31;1.53;;;0.70;;
64619;SDS011;51029;51.058;13.826;2023-08-07T13:43:57;1.63;;;0.80;;
64619;SDS011;51029;51.058;13.826;2023-08-07T13:46:23;1.40;;;0.83;;
64619;SDS011;51029;51.058;13.826;2023-08-07T13:48:48;1.57;;;0.80;;
64619;SDS011;51029;51.058;13.826;2023-08-07T13:51:14;1.37;;;0.60;;
64619;SDS011;51029;51.058;13.826;2023-08-07T13:53:40;3.23;;;0.90;;
64619;SDS011;51029;51.058;13.826;2023-08-07T13:56:06;2.10;;;0.90;;
64619;SDS011;51029;51.058;13.826;2023-08-07T13:58:33;0.97;;;0.60;;
64619;SDS011;51029;51.058;13.826;2023-08-07T14:00:59;0.80;;;0.60;;
64619;SDS011;51029;51.058;13.826;2023-08-07T14:03:25;1.03;;;0.67;;
64619;SDS011;51029;51.058;13.826;2023-08-07T14:05:50;1.10;;;0.80;;
64619;SDS011;51029;51.058;13.826;2023-08-07T14:08:16;1.37;;;1.10;;
64619;SDS011;51029;51.058;13.826;2023-08-07T14:10:42;2.60;;;0.80;;
64619;SDS011;51029;51.058;13.826;2023-08-07T14:13:08;3.20;;;1.50;;
64619;SDS011;51029;51.058;13.826;2023-08-07T14:15:34;3.37;;;1.30;;
64619;SDS011;51029;51.058;13.826;2023-08-07T14:18:00;5.60;;;1.47;;
64619;SDS011;51029;51.058;13.826;2023-08-07T14:20:26;2.67;;;1.30;;
64619;SDS011;51029;51.058;13.826;2023-08-07T14:22:51;4.23;;;1.80;;
64619;SDS011;51029;51.058;13.826;2023-08-07T14:25:17;2.17;;;1.50;;
64619;SDS011;51029;51.058;13.826;2023-08-07T14:27:42;2.67;;;2.00;;
64619;SDS011;51029;51.058;13.826;2023-08-07T14:30:08;7.57;;;1.87;;
64619;SDS011;51029;51.058;13.826;2023-08-07T14:32:34;3.83;;;1.77;;
64619;SDS011;51029;51.058;13.826;2023-08-07T14:34:59;2.40;;;1.80;;
64619;SDS011;51029;51.058;13.826;2023-08-07T14:37:25;3.30;;;1.90;;
64619;SDS011;51029;51.058;13.826;2023-08-07T14:39:51;3.07;;;1.63;;
64619;SDS011;51029;51.058;13.826;2023-08-07T14:42:16;2.03;;;1.70;;